Time;durP1;ratioP1;P1;durP2;ratioP2;P2;SDS_P1;SDS_P2;PMS_P1;PMS_P2;Temp;Humidity;BMP_temperature;BMP_pressure;BME280_temperature;BME280_humidity;BME280_pressure;Samples;Min_cycle;Max_cycle;Signal;HPM_P1;HPM_P2
2023/07/14 00:01:43;;;;;;;2.42;2.22;;;;;;;;;;10347615;28;20393;-79
2023/07/14 00:06:44;;;;;;;2.93;2.37;;;;;;;;;;10347963;28;20038;-77
2023/07/14 00:11:45;;;;;;;6.95;2.75;;;;;;;;;;10342728;28;20143;-80
2023/07/14 00:16:45;;;;;;;5.18;2.65;;;;;;;;;;10344374;28;20099;-77
2023/07/14 00:21:46;;;;;;;4.32;2.60;;;;;;;;;;10342268;28;20513;-78
2023/07/14 00:26:48;;;;;;;3.58;2.55;;;;;;;;;;10344142;28;21551;-78
2023/07/14 00:31:49;;;;;;;3.08;2.60;;;;;;;;;;10340564;28;20038;-77
2023/07/14 00:36:49;;;;;;;3.10;2.33;;;;;;;;;;10335037;28;20864;-78
2023/07/14 00:41:49;;;;;;;4.70;2.90;;;;;;;;;;10347456;28;20382;-78
2023/07/14 00:46:50;;;;;;;4.07;2.77;;;;;;;;;;10345218;28;20120;-78
2023/07/14 00:51:51;;;;;;;3.47;2.95;;;;;;;;;;10348749;28;20041;-79
2023/07/14 00:56:51;;;;;;;5.28;2.97;;;;;;;;;;10346067;28;20132;-80
2023/07/14 01:02:24;;;;;;;3.00;2.65;;;;;;;;;;10347025;28;20926;-81
2023/07/14 01:07:37;;;;;;;3.13;2.45;;;;;;;;;;10305934;28;20057;-79
2023/07/14 01:12:40;;;;;;;4.22;2.83;;;;;;;;;;10344572;28;20333;-78
2023/07/14 01:17:40;;;;;;;3.50;2.90;;;;;;;;;;10353513;28;20034;-80
2023/07/14 01:22:45;;;;;;;3.40;2.83;;;;;;;;;;10346541;28;20038;-79
2023/07/14 01:27:46;;;;;;;3.63;3.05;;;;;;;;;;10343866;28;20073;-78
2023/07/14 01:32:47;;;;;;;4.18;3.28;;;;;;;;;;10343913;28;20056;-79
2023/07/14 01:37:48;;;;;;;3.83;2.78;;;;;;;;;;10341294;28;20302;-78
2023/07/14 01:42:52;;;;;;;4.88;2.92;;;;;;;;;;10338972;28;20130;-78
2023/07/14 01:47:54;;;;;;;3.15;2.70;;;;;;;;;;10343467;28;20022;-78
2023/07/14 01:52:56;;;;;;;4.10;2.95;;;;;;;;;;10347394;28;20057;-77
2023/07/14 01:57:57;;;;;;;4.32;2.88;;;;;;;;;;10346750;28;20581;-78
2023/07/14 02:02:59;;;;;;;4.20;3.10;;;;;;;;;;10343932;28;20057;-77
2023/07/14 02:08:03;;;;;;;2.92;2.55;;;;;;;;;;10345075;28;20062;-78
2023/07/14 02:13:05;;;;;;;3.17;2.88;;;;;;;;;;10349617;28;20042;-79
2023/07/14 02:18:10;;;;;;;3.15;2.85;;;;;;;;;;10353091;28;20060;-77
2023/07/14 02:23:12;;;;;;;3.72;2.70;;;;;;;;;;10352650;28;20038;-78
2023/07/14 02:28:13;;;;;;;3.90;2.63;;;;;;;;;;10354574;28;20041;-79
2023/07/14 02:33:17;;;;;;;4.40;3.08;;;;;;;;;;10371993;28;20041;-80
2023/07/14 02:38:17;;;;;;;4.25;2.80;;;;;;;;;;10384366;28;20033;-80
2023/07/14 02:43:19;;;;;;;4.05;3.03;;;;;;;;;;10350955;28;20474;-79
2023/07/14 02:48:22;;;;;;;4.50;3.00;;;;;;;;;;10355269;28;20042;-79
2023/07/14 02:53:23;;;;;;;3.00;2.65;;;;;;;;;;10348658;28;20042;-79
2023/07/14 02:58:23;;;;;;;4.55;3.20;;;;;;;;;;10354044;28;20041;-80
2023/07/14 03:03:24;;;;;;;3.88;3.30;;;;;;;;;;10353247;28;20052;-80
2023/07/14 03:08:26;;;;;;;5.43;3.03;;;;;;;;;;10351183;28;20955;-81
2023/07/14 03:13:26;;;;;;;3.67;3.37;;;;;;;;;;10351826;28;20463;-83
2023/07/14 03:18:28;;;;;;;3.30;3.00;;;;;;;;;;10346707;28;20042;-79
2023/07/14 03:23:29;;;;;;;5.93;3.47;;;;;;;;;;10332023;28;20050;-78
2023/07/14 03:28:32;;;;;;;3.45;3.10;;;;;;;;;;10340793;28;20079;-78
2023/07/14 03:33:33;;;;;;;4.88;3.22;;;;;;;;;;10349427;28;20050;-75
2023/07/14 03:38:38;;;;;;;3.92;2.95;;;;;;;;;;10347546;28;20034;-76
2023/07/14 03:43:39;;;;;;;6.25;3.40;;;;;;;;;;10343953;28;20062;-77
2023/07/14 03:48:39;;;;;;;6.30;4.10;;;;;;;;;;10349034;28;20488;-80
2023/07/14 03:53:42;;;;;;;4.13;3.33;;;;;;;;;;10344396;28;20042;-77
2023/07/14 03:58:43;;;;;;;;;;;;;;;;;;10345723;28;20168;-77
2023/07/14 04:03:44;;;;;;;3.83;3.33;;;;;;;;;;10340827;28;19921;-79
2023/07/14 04:08:45;;;;;;;5.47;3.63;;;;;;;;;;10344892;28;20834;-78
2023/07/14 04:13:45;;;;;;;4.60;3.70;;;;;;;;;;10337749;28;20061;-79
2023/07/14 04:18:46;;;;;;;4.80;3.60;;;;;;;;;;10357735;28;20037;-78
2023/07/14 04:23:46;;;;;;;4.80;3.15;;;;;;;;;;10342262;28;20045;-77
2023/07/14 04:28:47;;;;;;;4.22;3.45;;;;;;;;;;10342622;28;20073;-77
2023/07/14 04:33:48;;;;;;;4.32;3.40;;;;;;;;;;10345520;28;20425;-77
2023/07/14 04:39:03;;;;;;;4.20;3.40;;;;;;;;;;10347429;28;20120;-78
2023/07/14 04:44:13;;;;;;;3.83;3.38;;;;;;;;;;10354776;28;20190;-78
2023/07/14 04:49:15;;;;;;;4.97;3.40;;;;;;;;;;10343206;28;20130;-76
2023/07/14 04:54:15;;;;;;;5.20;3.30;;;;;;;;;;10341107;28;20038;-79
2023/07/14 04:59:15;;;;;;;4.83;3.37;;;;;;;;;;10343746;28;20033;-78
2023/07/14 05:04:16;;;;;;;3.88;3.25;;;;;;;;;;10338516;28;20092;-77
2023/07/14 05:09:16;;;;;;;5.17;3.40;;;;;;;;;;10347610;28;20065;-79
2023/07/14 05:14:16;;;;;;;3.20;2.90;;;;;;;;;;10341446;28;20712;-76
2023/07/14 05:19:17;;;;;;;5.53;2.87;;;;;;;;;;10344766;28;20042;-77
2023/07/14 05:24:17;;;;;;;3.35;3.08;;;;;;;;;;10365760;28;20449;-80
2023/07/14 05:29:17;;;;;;;4.30;2.87;;;;;;;;;;10345821;28;20042;-76
2023/07/14 05:34:18;;;;;;;3.97;2.80;;;;;;;;;;10340190;28;20151;-75
2023/07/14 05:39:19;;;;;;;6.03;3.37;;;;;;;;;;10343121;28;20795;-77
2023/07/14 05:44:20;;;;;;;7.35;3.38;;;;;;;;;;10348903;28;20030;-82
2023/07/14 05:49:20;;;;;;;4.15;3.00;;;;;;;;;;10348497;28;20057;-76
2023/07/14 05:54:21;;;;;;;4.10;2.80;;;;;;;;;;10346945;28;20065;-75
2023/07/14 05:59:21;;;;;;;3.60;3.20;;;;;;;;;;10348831;28;20026;-75
2023/07/14 06:04:22;;;;;;;3.60;3.07;;;;;;;;;;10346076;28;20461;-75
2023/07/14 06:09:22;;;;;;;4.60;3.60;;;;;;;;;;10347027;28;20285;-74
2023/07/14 06:14:23;;;;;;;4.47;3.40;;;;;;;;;;10351880;28;20054;-76
2023/07/14 06:19:23;;;;;;;6.07;4.20;;;;;;;;;;10348977;28;20124;-77
2023/07/14 06:24:24;;;;;;;3.83;3.53;;;;;;;;;;10351994;28;20045;-74
2023/07/14 06:29:24;;;;;;;4.10;3.70;;;;;;;;;;10348504;28;20159;-73
2023/07/14 06:34:25;;;;;;;4.57;3.70;;;;;;;;;;10349702;28;20192;-73
2023/07/14 06:39:25;;;;;;;5.38;3.65;;;;;;;;;;10349306;28;20185;-77
2023/07/14 06:44:26;;;;;;;5.82;3.80;;;;;;;;;;10349688;28;20069;-77
2023/07/14 06:49:26;;;;;;;6.35;3.55;;;;;;;;;;10344366;28;20536;-77
2023/07/14 06:54:26;;;;;;;6.38;3.70;;;;;;;;;;10349861;28;20056;-76
2023/07/14 06:59:27;;;;;;;4.77;3.50;;;;;;;;;;10344981;28;20383;-78
2023/07/14 07:04:27;;;;;;;5.37;3.83;;;;;;;;;;10354074;28;20046;-77
2023/07/14 07:09:28;;;;;;;3.78;3.30;;;;;;;;;;10359713;28;20119;-76
2023/07/14 07:14:29;;;;;;;4.53;3.47;;;;;;;;;;10366016;28;20050;-77
2023/07/14 07:19:31;;;;;;;3.20;2.90;;;;;;;;;;10354604;28;20044;-77
2023/07/14 07:24:32;;;;;;;5.70;3.63;;;;;;;;;;10354000;28;20465;-78
2023/07/14 07:29:32;;;;;;;5.10;2.97;;;;;;;;;;10355512;28;20115;-77
2023/07/14 07:34:32;;;;;;;3.50;2.03;;;;;;;;;;10347741;28;20049;-78
2023/07/14 07:39:33;;;;;;;3.90;2.30;;;;;;;;;;10345594;28;20753;-78
2023/07/14 07:44:33;;;;;;;2.67;2.33;;;;;;;;;;10349072;28;20120;-78
2023/07/14 07:49:35;;;;;;;4.77;2.20;;;;;;;;;;10346297;28;20309;-78
2023/07/14 07:54:35;;;;;;;2.33;1.70;;;;;;;;;;10347998;28;20473;-77
2023/07/14 07:59:36;;;;;;;2.77;1.90;;;;;;;;;;10344802;28;20402;-80
2023/07/14 08:04:36;;;;;;;1.70;1.60;;;;;;;;;;10348477;28;20296;-78
2023/07/14 08:09:36;;;;;;;2.57;1.83;;;;;;;;;;10346143;28;20041;-77
2023/07/14 08:14:53;;;;;;;2.37;1.50;;;;;;;;;;10355801;28;20446;-77
2023/07/14 08:19:54;;;;;;;2.72;1.70;;;;;;;;;;10343588;28;20053;-78
2023/07/14 08:24:55;;;;;;;3.63;2.10;;;;;;;;;;10346772;28;20033;-76
2023/07/14 08:29:55;;;;;;;2.78;1.60;;;;;;;;;;10345304;28;20381;-76
2023/07/14 08:34:56;;;;;;;3.85;1.60;;;;;;;;;;10343949;28;20041;-77
2023/07/14 08:39:56;;;;;;;2.13;1.40;;;;;;;;;;10346491;28;20030;-76
2023/07/14 08:45:15;;;;;;;3.63;1.60;;;;;;;;;;10344882;28;20033;-79
2023/07/14 08:50:18;;;;;;;3.50;1.77;;;;;;;;;;10345978;28;20042;-77
2023/07/14 08:55:22;;;;;;;2.00;1.65;;;;;;;;;;10343482;28;20464;-77
2023/07/14 09:00:46;;;;;;;5.07;1.95;;;;;;;;;;10343589;28;20030;-77
2023/07/14 09:05:58;;;;;;;2.03;1.60;;;;;;;;;;10340060;28;20050;-79
2023/07/14 09:11:02;;;;;;;3.23;2.17;;;;;;;;;;10339980;28;20036;-79
2023/07/14 09:16:04;;;;;;;3.55;2.03;;;;;;;;;;10350152;28;20079;-78
2023/07/14 09:21:04;;;;;;;3.45;1.70;;;;;;;;;;10340518;28;20038;-77
2023/07/14 09:26:13;;;;;;;5.15;1.80;;;;;;;;;;10343762;28;20029;-78
2023/07/14 09:31:37;;;;;;;1.85;1.55;;;;;;;;;;10346273;28;20050;-78
2023/07/14 09:36:38;;;;;;;2.15;1.90;;;;;;;;;;10355490;28;20042;-78
2023/07/14 09:41:39;;;;;;;2.40;1.70;;;;;;;;;;10352087;28;20088;-79
2023/07/14 09:46:46;;;;;;;3.53;1.92;;;;;;;;;;10341956;28;20049;-79
2023/07/14 09:52:01;;;;;;;4.32;1.83;;;;;;;;;;10345419;28;20062;-77
2023/07/14 09:57:02;;;;;;;4.20;1.88;;;;;;;;;;10347123;28;20034;-78
2023/07/14 10:02:13;;;;;;;3.50;1.63;;;;;;;;;;10344727;28;20037;-79
2023/07/14 10:07:25;;;;;;;5.13;1.83;;;;;;;;;;10340988;28;20398;-79
2023/07/14 10:12:34;;;;;;;2.92;1.70;;;;;;;;;;10344199;28;20045;-78
2023/07/14 10:17:40;;;;;;;2.13;1.70;;;;;;;;;;10342917;28;20506;-78
2023/07/14 10:22:40;;;;;;;6.32;1.70;;;;;;;;;;10342313;28;20038;-79
2023/07/14 10:27:41;;;;;;;2.37;1.80;;;;;;;;;;10344527;28;20038;-78
2023/07/14 10:32:44;;;;;;;2.70;1.80;;;;;;;;;;10345750;28;20349;-79
2023/07/14 10:37:51;;;;;;;2.95;1.80;;;;;;;;;;10347698;28;20049;-77
2023/07/14 10:43:02;;;;;;;4.40;1.70;;;;;;;;;;10348519;28;20545;-79
2023/07/14 10:48:11;;;;;;;3.87;2.40;;;;;;;;;;10353052;28;20109;-78
2023/07/14 10:53:20;;;;;;;5.35;2.03;;;;;;;;;;10351942;28;20045;-80
2023/07/14 10:58:33;;;;;;;6.55;2.05;;;;;;;;;;10352798;28;20038;-78
2023/07/14 11:03:42;;;;;;;2.72;2.00;;;;;;;;;;10367709;28;20048;-78
2023/07/14 11:08:42;;;;;;;3.33;1.63;;;;;;;;;;10348934;28;20103;-78
2023/07/14 11:13:48;;;;;;;3.67;1.87;;;;;;;;;;10343219;28;20119;-81
2023/07/14 11:18:51;;;;;;;2.17;1.98;;;;;;;;;;10351637;28;20088;-80
2023/07/14 11:23:59;;;;;;;4.25;2.13;;;;;;;;;;10343305;28;20073;-81
2023/07/14 11:29:08;;;;;;;2.80;1.90;;;;;;;;;;10346809;28;20169;-81
2023/07/14 11:34:21;;;;;;;1.88;1.70;;;;;;;;;;10353049;28;20049;-82
2023/07/14 11:39:42;;;;;;;3.67;2.00;;;;;;;;;;10347502;28;20080;-81
2023/07/14 11:44:43;;;;;;;2.22;2.03;;;;;;;;;;10360076;28;20033;-81
2023/07/14 11:49:44;;;;;;;3.90;1.77;;;;;;;;;;10372975;28;20041;-80
2023/07/14 11:54:48;;;;;;;5.30;1.90;;;;;;;;;;10362024;28;20162;-80
2023/07/14 11:59:54;;;;;;;2.20;2.00;;;;;;;;;;10359867;28;20026;-83
2023/07/14 12:04:59;;;;;;;3.67;1.70;;;;;;;;;;10355591;28;20034;-81
2023/07/14 12:10:10;;;;;;;2.42;1.60;;;;;;;;;;10352217;28;20038;-81
2023/07/14 12:15:29;;;;;;;3.80;1.80;;;;;;;;;;10356669;28;20046;-81
2023/07/14 12:20:32;;;;;;;2.63;1.90;;;;;;;;;;10353995;28;20067;-79
2023/07/14 12:25:46;;;;;;;3.05;1.98;;;;;;;;;;10348830;28;20109;-80
2023/07/14 12:30:51;;;;;;;4.47;1.90;;;;;;;;;;10354383;28;20041;-81
2023/07/14 12:35:51;;;;;;;2.10;1.90;;;;;;;;;;10350755;28;20340;-80
2023/07/14 12:40:54;;;;;;;2.67;1.50;;;;;;;;;;10347051;28;20046;-82
2023/07/14 12:45:55;;;;;;;4.38;2.00;;;;;;;;;;10354862;28;20762;-80
2023/07/14 12:50:55;;;;;;;;;;;;;;;;;;10351372;28;20486;-79
2023/07/14 12:56:02;;;;;;;2.85;1.65;;;;;;;;;;10347740;28;19921;-81
2023/07/14 13:01:03;;;;;;;4.45;1.70;;;;;;;;;;10348729;28;20038;-78
2023/07/14 13:06:04;;;;;;;3.10;1.70;;;;;;;;;;10346344;28;20045;-75
2023/07/14 13:11:05;;;;;;;2.73;1.60;;;;;;;;;;10343247;28;20454;-77
2023/07/14 13:16:05;;;;;;;;;;;;;;;;;;10343164;28;20046;-77
2023/07/14 13:21:26;;;;;;;3.47;1.88;;;;;;;;;;10343844;28;19925;-78
2023/07/14 13:26:28;;;;;;;2.03;1.77;;;;;;;;;;10345535;28;20089;-79
2023/07/14 13:31:32;;;;;;;2.40;1.80;;;;;;;;;;10345545;28;20057;-78
2023/07/14 13:36:33;;;;;;;4.03;1.70;;;;;;;;;;10332135;28;20042;-80
2023/07/14 13:41:34;;;;;;;3.08;1.92;;;;;;;;;;10344520;28;20037;-78
2023/07/14 13:46:38;;;;;;;1.70;1.60;;;;;;;;;;10342748;28;20030;-79
2023/07/14 13:51:39;;;;;;;2.78;1.83;;;;;;;;;;10338343;28;20057;-78
2023/07/14 13:56:39;;;;;;;2.70;1.93;;;;;;;;;;10340065;28;20088;-79
2023/07/14 14:01:40;;;;;;;3.17;1.83;;;;;;;;;;10346699;28;20053;-80
2023/07/14 14:06:41;;;;;;;2.03;1.83;;;;;;;;;;10345940;28;20458;-78
2023/07/14 14:11:42;;;;;;;4.13;2.00;;;;;;;;;;10352512;28;20565;-80
2023/07/14 14:16:47;;;;;;;4.63;1.90;;;;;;;;;;10352054;28;20042;-80
2023/07/14 14:21:47;;;;;;;2.72;1.85;;;;;;;;;;10356126;28;20374;-78
2023/07/14 14:26:48;;;;;;;3.17;2.20;;;;;;;;;;10363791;28;20044;-76
2023/07/14 14:31:48;;;;;;;4.50;2.23;;;;;;;;;;10360859;28;20049;-77
2023/07/14 14:36:48;;;;;;;2.90;2.10;;;;;;;;;;10352159;28;20034;-79
2023/07/14 14:41:51;;;;;;;2.03;1.60;;;;;;;;;;10362844;28;20033;-77
2023/07/14 14:46:51;;;;;;;3.38;1.92;;;;;;;;;;10349870;28;20058;-79
2023/07/14 14:51:54;;;;;;;2.88;2.40;;;;;;;;;;10350907;28;20045;-77
2023/07/14 14:56:55;;;;;;;2.35;2.15;;;;;;;;;;10351294;28;20054;-78
2023/07/14 15:01:55;;;;;;;3.60;2.03;;;;;;;;;;10357006;28;21277;-79
2023/07/14 15:06:57;;;;;;;1.93;1.53;;;;;;;;;;10353120;28;20038;-77
2023/07/14 15:11:58;;;;;;;2.40;1.90;;;;;;;;;;10351301;28;20041;-81
2023/07/14 15:16:59;;;;;;;3.90;1.80;;;;;;;;;;10352068;28;20108;-81
2023/07/14 15:22:00;;;;;;;3.15;1.90;;;;;;;;;;10380375;28;20072;-81
2023/07/14 15:27:00;;;;;;;2.27;1.90;;;;;;;;;;10346940;28;20698;-78
2023/07/14 15:32:01;;;;;;;2.80;1.87;;;;;;;;;;10342945;28;20606;-79
2023/07/14 15:37:01;;;;;;;2.63;1.80;;;;;;;;;;10352769;28;20741;-80
2023/07/14 15:42:07;;;;;;;3.00;1.77;;;;;;;;;;10348805;28;20123;-79
2023/07/14 15:47:16;;;;;;;2.22;1.98;;;;;;;;;;10349150;28;20037;-80
2023/07/14 15:52:18;;;;;;;2.50;1.90;;;;;;;;;;10347344;28;20169;-81
2023/07/14 15:57:20;;;;;;;3.17;2.10;;;;;;;;;;10344079;28;20041;-81
2023/07/14 16:02:21;;;;;;;3.30;1.90;;;;;;;;;;10346186;28;20050;-78
2023/07/14 16:07:22;;;;;;;2.40;1.90;;;;;;;;;;10350030;28;20111;-82
2023/07/14 16:12:22;;;;;;;2.60;2.10;;;;;;;;;;10355489;28;20034;-78
2023/07/14 16:17:23;;;;;;;3.53;2.17;;;;;;;;;;10359309;28;20494;-80
2023/07/14 16:22:23;;;;;;;2.60;2.00;;;;;;;;;;10359593;28;20045;-79
2023/07/14 16:27:25;;;;;;;2.53;2.10;;;;;;;;;;10348753;28;20108;-79
2023/07/14 16:32:25;;;;;;;3.53;2.20;;;;;;;;;;10345366;28;20064;-80
2023/07/14 16:37:26;;;;;;;2.67;2.20;;;;;;;;;;10348582;28;20049;-80
2023/07/14 16:42:27;;;;;;;3.10;1.80;;;;;;;;;;10359190;28;20018;-80
2023/07/14 16:47:27;;;;;;;4.03;2.13;;;;;;;;;;10356953;28;20288;-78
2023/07/14 16:52:28;;;;;;;3.27;2.17;;;;;;;;;;10339356;28;20051;-79
2023/07/14 16:57:29;;;;;;;2.47;1.93;;;;;;;;;;10348391;28;20038;-78
2023/07/14 17:02:30;;;;;;;;;;;;;;;;;;10339384;28;20442;-78
2023/07/14 17:07:30;;;;;;;2.47;2.05;;;;;;;;;;10347678;28;19924;-77
2023/07/14 17:12:30;;;;;;;3.33;2.17;;;;;;;;;;10345483;28;20153;-79
2023/07/14 17:17:33;;;;;;;4.23;2.07;;;;;;;;;;10342404;28;20811;-78
2023/07/14 17:22:35;;;;;;;2.88;2.30;;;;;;;;;;10343875;28;20607;-78
2023/07/14 17:27:37;;;;;;;;;;;;;;;;;;10343377;28;20062;-77
2023/07/14 17:32:38;;;;;;;3.13;2.30;;;;;;;;;;10343591;28;19925;-78
2023/07/14 17:37:39;;;;;;;3.00;1.90;;;;;;;;;;10343265;28;20030;-78
2023/07/14 17:42:39;;;;;;;3.13;2.50;;;;;;;;;;10346693;28;20125;-78
2023/07/14 17:47:39;;;;;;;3.23;2.43;;;;;;;;;;10345538;28;20431;-79
2023/07/14 17:52:40;;;;;;;2.30;2.10;;;;;;;;;;10348195;28;21352;-78
2023/07/14 17:57:41;;;;;;;4.30;2.00;;;;;;;;;;10344315;28;20034;-77
2023/07/14 18:02:41;;;;;;;2.93;2.13;;;;;;;;;;10358745;28;20120;-77
2023/07/14 18:07:44;;;;;;;2.77;2.40;;;;;;;;;;10347922;28;20432;-78
2023/07/14 18:12:45;;;;;;;3.42;2.60;;;;;;;;;;10344720;28;20429;-80
2023/07/14 18:17:46;;;;;;;2.50;2.30;;;;;;;;;;10344462;28;20034;-79
2023/07/14 18:22:47;;;;;;;3.60;2.43;;;;;;;;;;10345126;28;21286;-77
2023/07/14 18:27:49;;;;;;;2.97;2.42;;;;;;;;;;10338811;28;20042;-78
2023/07/14 18:32:50;;;;;;;3.63;2.20;;;;;;;;;;10333472;28;20039;-77
2023/07/14 18:37:51;;;;;;;6.13;4.70;;;;;;;;;;10340209;28;20042;-78
2023/07/14 18:42:58;;;;;;;6.07;4.90;;;;;;;;;;10343140;28;20034;-78
2023/07/14 18:48:14;;;;;;;4.38;3.72;;;;;;;;;;10346650;28;20051;-79
2023/07/14 18:53:18;;;;;;;3.47;2.88;;;;;;;;;;10348965;28;20049;-78
2023/07/14 18:58:22;;;;;;;3.53;2.45;;;;;;;;;;10349033;28;20037;-79
2023/07/14 19:03:23;;;;;;;3.25;2.35;;;;;;;;;;10345410;28;20073;-78
2023/07/14 19:08:23;;;;;;;3.57;2.10;;;;;;;;;;10351498;28;20041;-77
2023/07/14 19:13:24;;;;;;;2.60;2.27;;;;;;;;;;10347769;28;20048;-76
2023/07/14 19:18:25;;;;;;;3.27;2.47;;;;;;;;;;10346348;28;20069;-81
2023/07/14 19:23:26;;;;;;;4.23;2.87;;;;;;;;;;10350718;28;20062;-80
2023/07/14 19:28:27;;;;;;;7.10;5.68;;;;;;;;;;10361947;28;20034;-75
2023/07/14 19:33:27;;;;;;;4.38;3.53;;;;;;;;;;10352907;28;20050;-76
2023/07/14 19:38:28;;;;;;;3.73;3.10;;;;;;;;;;10349648;28;20068;-77
2023/07/14 19:43:28;;;;;;;4.13;3.03;;;;;;;;;;10340228;28;20289;-79
2023/07/14 19:48:28;;;;;;;5.97;3.60;;;;;;;;;;10344421;28;20464;-77
2023/07/14 19:53:29;;;;;;;5.60;3.70;;;;;;;;;;10341833;28;20046;-79
2023/07/14 19:58:31;;;;;;;4.82;3.42;;;;;;;;;;10349409;28;20748;-79
2023/07/14 20:03:32;;;;;;;5.85;3.67;;;;;;;;;;10341429;28;20042;-79
2023/07/14 20:08:37;;;;;;;4.60;4.00;;;;;;;;;;10330445;28;20050;-77
2023/07/14 20:13:38;;;;;;;4.18;3.50;;;;;;;;;;10343322;28;20047;-79
2023/07/14 20:18:38;;;;;;;3.90;3.60;;;;;;;;;;10342454;28;20049;-77
2023/07/14 20:23:38;;;;;;;5.30;3.80;;;;;;;;;;10342295;28;20038;-77
2023/07/14 20:28:39;;;;;;;4.27;3.27;;;;;;;;;;10342271;28;20033;-76
2023/07/14 20:33:40;;;;;;;4.20;3.30;;;;;;;;;;10339349;28;21276;-77
2023/07/14 20:38:42;;;;;;;4.28;3.75;;;;;;;;;;10350024;28;20038;-79
2023/07/14 20:43:43;;;;;;;4.55;3.60;;;;;;;;;;10352963;28;20034;-78
2023/07/14 20:48:44;;;;;;;4.03;3.10;;;;;;;;;;10349949;28;20052;-79
2023/07/14 20:53:44;;;;;;;3.33;3.03;;;;;;;;;;10360558;28;20052;-80
2023/07/14 20:58:46;;;;;;;3.57;3.03;;;;;;;;;;10368101;28;20066;-78
2023/07/14 21:03:47;;;;;;;3.67;3.30;;;;;;;;;;10350867;28;20033;-78
2023/07/14 21:08:48;;;;;;;4.20;3.00;;;;;;;;;;10340508;28;20045;-79
2023/07/14 21:13:49;;;;;;;3.95;3.10;;;;;;;;;;10346093;28;20085;-81
2023/07/14 21:18:49;;;;;;;3.87;3.17;;;;;;;;;;10346332;28;20042;-79
2023/07/14 21:23:50;;;;;;;3.60;3.25;;;;;;;;;;10343848;28;21508;-80
2023/07/14 21:28:52;;;;;;;4.75;4.25;;;;;;;;;;10344905;28;20064;-79
2023/07/14 21:33:52;;;;;;;4.37;3.40;;;;;;;;;;10344839;28;20073;-79
2023/07/14 21:38:54;;;;;;;3.20;2.90;;;;;;;;;;10349446;28;20034;-80
2023/07/14 21:43:55;;;;;;;3.58;3.25;;;;;;;;;;10375140;28;21018;-79
2023/07/14 21:48:55;;;;;;;4.00;3.33;;;;;;;;;;10350975;28;20047;-80
2023/07/14 21:53:55;;;;;;;4.78;3.60;;;;;;;;;;10345477;28;20712;-81
2023/07/14 21:58:56;;;;;;;3.67;3.25;;;;;;;;;;10341105;28;20045;-78
2023/07/14 22:03:56;;;;;;;4.43;3.53;;;;;;;;;;10342435;28;20498;-78
2023/07/14 22:08:57;;;;;;;4.80;3.73;;;;;;;;;;10339639;28;20041;-76
2023/07/14 22:13:57;;;;;;;4.75;3.85;;;;;;;;;;10340586;28;20391;-77
2023/07/14 22:18:57;;;;;;;4.90;3.90;;;;;;;;;;10339139;28;20493;-75
2023/07/14 22:23:58;;;;;;;5.70;4.00;;;;;;;;;;10343672;28;20304;-76
2023/07/14 22:28:58;;;;;;;4.27;3.67;;;;;;;;;;10348653;28;20046;-76
2023/07/14 22:34:02;;;;;;;4.57;4.00;;;;;;;;;;10349196;28;20053;-77
2023/07/14 22:39:02;;;;;;;4.55;4.03;;;;;;;;;;10349104;28;20034;-75
2023/07/14 22:44:03;;;;;;;4.90;3.83;;;;;;;;;;10347976;28;20674;-79
2023/07/14 22:49:03;;;;;;;4.53;3.70;;;;;;;;;;10348941;28;20472;-76
2023/07/14 22:54:05;;;;;;;3.97;3.63;;;;;;;;;;10348304;28;20046;-74
2023/07/14 22:59:05;;;;;;;4.75;4.07;;;;;;;;;;10348971;28;20410;-75
2023/07/14 23:04:06;;;;;;;4.13;3.72;;;;;;;;;;10346210;28;20033;-75
2023/07/14 23:09:10;;;;;;;4.23;3.83;;;;;;;;;;10347393;28;20054;-75
2023/07/14 23:14:11;;;;;;;4.82;4.22;;;;;;;;;;10351780;28;20404;-77
2023/07/14 23:19:13;;;;;;;5.82;4.50;;;;;;;;;;10348777;28;20532;-76
2023/07/14 23:24:16;;;;;;;5.03;4.53;;;;;;;;;;10347027;28;20044;-76
2023/07/14 23:29:16;;;;;;;4.82;3.90;;;;;;;;;;10348392;28;21221;-75
2023/07/14 23:34:16;;;;;;;4.50;4.10;;;;;;;;;;10347447;28;20072;-74
2023/07/14 23:39:17;;;;;;;4.37;3.80;;;;;;;;;;10348784;28;20121;-75
2023/07/14 23:44:19;;;;;;;5.00;3.90;;;;;;;;;;10347434;28;20285;-75
2023/07/14 23:49:20;;;;;;;4.80;4.30;;;;;;;;;;10368278;28;20038;-76
2023/07/14 23:54:23;;;;;;;5.30;4.50;;;;;;;;;;10348481;28;20497;-74
2023/07/14 23:59:24;;;;;;;4.55;4.15;;;;;;;;;;10342963;28;20119;-75
